createdAt,value
2019-01-26T00:00:02.642Z,95585.09
2019-01-26T00:01:07.596Z,95590.55
2019-01-26T00:02:12.260Z,95586.77
2019-01-26T00:03:15.547Z,95594.13
2019-01-26T00:04:18.824Z,95586.59
2019-01-26T00:05:22.171Z,95588.06
2019-01-26T00:06:25.555Z,95599.00
2019-01-26T00:07:28.845Z,95601.31
2019-01-26T00:08:32.200Z,95604.13
2019-01-26T00:09:35.502Z,95612.42
2019-01-26T00:10:38.773Z,95622.21
2019-01-26T00:11:42.105Z,95626.43
2019-01-26T00:12:45.400Z,95631.77
2019-01-26T00:13:48.685Z,95625.95
2019-01-26T00:14:51.967Z,95630.94
2019-01-26T00:15:55.250Z,95635.62
2019-01-26T00:16:58.569Z,95629.34
2019-01-26T00:18:01.885Z,95632.52
2019-01-26T00:19:05.170Z,95632.48
2019-01-26T00:20:09.512Z,95631.66
2019-01-26T00:21:12.797Z,95624.80
2019-01-26T00:22:16.127Z,95625.02
2019-01-26T00:23:19.417Z,95625.45
2019-01-26T00:24:22.705Z,95621.91
2019-01-26T00:25:25.991Z,95621.31
2019-01-26T00:26:29.272Z,95620.33
2019-01-26T00:27:32.592Z,95618.46
2019-01-26T00:28:35.884Z,95629.09
2019-01-26T00:29:39.229Z,95630.02
2019-01-26T00:30:42.514Z,95623.14
2019-01-26T00:31:45.808Z,95635.73
2019-01-26T00:32:49.195Z,95637.13
2019-01-26T00:33:52.477Z,95634.04
2019-01-26T00:34:55.766Z,95636.07
2019-01-26T00:35:59.061Z,95636.69
2019-01-26T00:37:02.344Z,95640.44
2019-01-26T00:38:05.657Z,95631.58
2019-01-26T00:39:09.002Z,95631.47
2019-01-26T00:40:12.755Z,95631.34
2019-01-26T00:41:16.045Z,95630.02
2019-01-26T00:42:19.316Z,95631.47
2019-01-26T00:43:22.637Z,95629.47
2019-01-26T00:44:26.017Z,95632.86
2019-01-26T00:45:29.313Z,95634.08
2019-01-26T00:46:32.912Z,95630.16
2019-01-26T00:47:36.275Z,95639.77
2019-01-26T00:48:39.590Z,95641.27
2019-01-26T00:49:42.881Z,95643.09
2019-01-26T00:50:46.162Z,95651.48
2019-01-26T00:51:49.444Z,95654.50
2019-01-26T00:52:52.794Z,95658.94
2019-01-26T00:53:56.412Z,95658.53
2019-01-26T00:54:59.687Z,95662.33
2019-01-26T00:56:03.046Z,95661.00
2019-01-26T00:57:06.324Z,95664.91
2019-01-26T00:58:09.676Z,95665.11
2019-01-26T00:59:12.992Z,95668.30
2019-01-26T01:00:21.213Z,95669.38
2019-01-26T01:01:24.770Z,95670.94
2019-01-26T01:02:28.182Z,95672.44
2019-01-26T01:03:31.536Z,95673.35
2019-01-26T01:04:34.879Z,95671.97
2019-01-26T01:05:38.242Z,95682.59
2019-01-26T01:06:41.522Z,95678.24
2019-01-26T01:07:44.878Z,95685.55
2019-01-26T01:08:48.168Z,95687.22
2019-01-26T01:09:51.501Z,95693.13
2019-01-26T01:10:54.783Z,95694.70
2019-01-26T01:11:58.066Z,95695.17
2019-01-26T01:13:01.428Z,95700.80
2019-01-26T01:14:04.706Z,95696.81
2019-01-26T01:15:14.367Z,95691.98
2019-01-26T01:16:17.958Z,95693.25
2019-01-26T01:17:21.651Z,95693.56
2019-01-26T01:18:24.978Z,95692.36
2019-01-26T01:19:28.262Z,95690.07
2019-01-26T01:20:31.551Z,95689.08
2019-01-26T01:21:34.910Z,95690.55
2019-01-26T01:22:38.189Z,95690.07
2019-01-26T01:23:41.539Z,95689.69
2019-01-26T01:24:44.925Z,95687.94
2019-01-26T01:25:48.236Z,95687.34
2019-01-26T01:26:51.521Z,95688.80
2019-01-26T01:27:55.115Z,95690.12
2019-01-26T01:28:58.691Z,95684.59
2019-01-26T01:30:01.978Z,95686.69
2019-01-26T01:31:05.299Z,95689.87
2019-01-26T01:32:08.591Z,95692.15
2019-01-26T01:33:13.195Z,95697.84
2019-01-26T01:34:16.697Z,95694.41
2019-01-26T01:35:19.971Z,95691.07
2019-01-26T01:36:23.320Z,95694.03
2019-01-26T01:37:26.559Z,95693.96
2019-01-26T01:38:29.836Z,95698.90
2019-01-26T01:39:33.285Z,95693.16
2019-01-26T01:40:36.664Z,95691.59
2019-01-26T01:41:39.964Z,95690.75
2019-01-26T01:42:43.251Z,95688.03
2019-01-26T01:43:46.533Z,95686.84
2019-01-26T01:44:49.828Z,95683.41
2019-01-26T01:45:53.113Z,95679.97
2019-01-26T01:46:56.502Z,95676.27
2019-01-26T01:47:59.782Z,95684.84
2019-01-26T01:49:03.104Z,95678.38
2019-01-26T01:50:08.321Z,95683.45
2019-01-26T01:51:11.602Z,95687.35
2019-01-26T01:52:15.271Z,95687.52
2019-01-26T01:53:18.550Z,95689.56
2019-01-26T01:54:22.210Z,95695.95
2019-01-26T01:55:25.485Z,95698.94
2019-01-26T01:56:28.830Z,95698.84
2019-01-26T01:57:32.141Z,95691.53
2019-01-26T01:58:35.424Z,95695.67
2019-01-26T01:59:38.706Z,95699.92
2019-01-26T02:00:41.991Z,95699.45
2019-01-26T02:01:45.283Z,95694.52
2019-01-26T02:02:48.602Z,95695.92
2019-01-26T02:03:51.890Z,95703.63
2019-01-26T02:04:55.191Z,95696.02
2019-01-26T02:05:58.474Z,95692.89
2019-01-26T02:07:01.757Z,95688.00
2019-01-26T02:08:05.077Z,95680.52
2019-01-26T02:09:08.931Z,95679.36
2019-01-26T02:10:14.750Z,95681.47
2019-01-26T02:11:18.036Z,95684.12
2019-01-26T02:12:21.313Z,95677.11
2019-01-26T02:13:24.620Z,95680.55
2019-01-26T02:14:27.890Z,95679.94
2019-01-26T02:15:31.237Z,95683.58
2019-01-26T02:16:34.509Z,95693.52
2019-01-26T02:17:37.787Z,95688.82
2019-01-26T02:18:41.108Z,95682.44
2019-01-26T02:19:44.391Z,95682.13
2019-01-26T02:20:47.671Z,95685.94
2019-01-26T02:21:51.021Z,95694.59
2019-01-26T02:22:54.298Z,95686.34
2019-01-26T02:23:57.625Z,95687.73
2019-01-26T02:25:00.910Z,95685.56
2019-01-26T02:26:04.229Z,95688.05
2019-01-26T02:27:07.474Z,95686.41
2019-01-26T02:28:10.760Z,95686.64
2019-01-26T02:29:14.453Z,95679.72
2019-01-26T02:30:20.374Z,95684.73
2019-01-26T02:31:23.642Z,95686.21
2019-01-26T02:32:26.922Z,95687.05
2019-01-26T02:33:30.231Z,95690.11
2019-01-26T02:34:33.545Z,95693.44
2019-01-26T02:35:36.824Z,95691.81
2019-01-26T02:36:40.179Z,95692.67
2019-01-26T02:37:43.461Z,95694.63
2019-01-26T02:38:46.732Z,95688.07
2019-01-26T02:39:50.044Z,95698.81
2019-01-26T02:40:53.319Z,95701.40
2019-01-26T02:41:56.706Z,95698.97
2019-01-26T02:42:59.984Z,95700.29
2019-01-26T02:44:03.639Z,95701.00
2019-01-26T02:45:08.564Z,95703.41
2019-01-26T02:46:11.848Z,95710.90
2019-01-26T02:47:15.132Z,95712.28
2019-01-26T02:48:18.417Z,95710.81
2019-01-26T02:49:22.109Z,95720.14
2019-01-26T02:50:25.435Z,95714.85
2019-01-26T02:51:28.786Z,95718.97
2019-01-26T02:52:32.140Z,95724.98
2019-01-26T02:53:35.416Z,95719.69
2019-01-26T02:54:38.700Z,95719.94
2019-01-26T02:55:42.011Z,95726.38
2019-01-26T02:56:45.296Z,95725.35
2019-01-26T02:57:48.949Z,95719.13
2019-01-26T02:58:52.231Z,95719.67
2019-01-26T02:59:55.521Z,95726.52
2019-01-26T03:00:59.213Z,95726.13
2019-01-26T03:02:02.557Z,95724.66
2019-01-26T03:03:05.844Z,95725.83
2019-01-26T03:04:09.128Z,95719.76
2019-01-26T03:05:12.750Z,95716.95
2019-01-26T03:06:16.459Z,95718.13
2019-01-26T03:07:19.810Z,95717.20
2019-01-26T03:08:23.076Z,95722.10
2019-01-26T03:09:26.480Z,95722.10
2019-01-26T03:10:29.758Z,95723.42
2019-01-26T03:11:33.066Z,95718.28
2019-01-26T03:12:36.492Z,95728.72
2019-01-26T03:13:39.768Z,95738.67
2019-01-26T03:14:43.070Z,95726.55
2019-01-26T03:15:46.337Z,95723.52
2019-01-26T03:16:49.644Z,95724.03
2019-01-26T03:17:52.923Z,95728.23
2019-01-26T03:18:56.195Z,95728.23
2019-01-26T03:19:59.478Z,95730.64
2019-01-26T03:21:02.758Z,95739.22
2019-01-26T03:22:06.074Z,95737.20
2019-01-26T03:23:09.346Z,95735.73
2019-01-26T03:24:12.626Z,95734.02
2019-01-26T03:25:16.381Z,95736.33
2019-01-26T03:26:19.654Z,95735.64
2019-01-26T03:27:22.973Z,95739.76
2019-01-26T03:28:26.317Z,95739.31
2019-01-26T03:29:29.604Z,95744.66
2019-01-26T03:30:32.888Z,95752.84
2019-01-26T03:31:36.220Z,95751.12
2019-01-26T03:32:39.498Z,95748.78
2019-01-26T03:33:42.770Z,95754.31
2019-01-26T03:34:46.037Z,95757.66
2019-01-26T03:35:49.404Z,95766.53
2019-01-26T03:36:52.734Z,95761.09
2019-01-26T03:37:56.067Z,95756.88
2019-01-26T03:38:59.352Z,95760.16
2019-01-26T03:40:02.616Z,95764.37
2019-01-26T03:41:05.996Z,95761.72
2019-01-26T03:42:09.627Z,95762.11
2019-01-26T03:43:12.945Z,95766.38
2019-01-26T03:44:16.223Z,95776.19
2019-01-26T03:45:19.567Z,95781.08
2019-01-26T03:46:23.204Z,95774.06
2019-01-26T03:47:26.628Z,95772.41
2019-01-26T03:48:30.021Z,95775.94
2019-01-26T03:49:33.298Z,95784.59
2019-01-26T03:50:36.570Z,95777.09
2019-01-26T03:51:39.859Z,95781.31
2019-01-26T03:52:43.142Z,95789.06
2019-01-26T03:53:46.433Z,95778.87
2019-01-26T03:54:49.714Z,95784.11
2019-01-26T03:55:52.999Z,95789.25
2019-01-26T03:56:56.279Z,95778.98
2019-01-26T03:57:59.580Z,95782.34
2019-01-26T03:59:02.959Z,95784.52
2019-01-26T04:00:24.089Z,95787.14
2019-01-26T04:01:27.377Z,95787.20
2019-01-26T04:02:30.652Z,95793.92
2019-01-26T04:03:33.930Z,95791.75
2019-01-26T04:04:37.252Z,95795.19
2019-01-26T04:05:40.533Z,95794.55
2019-01-26T04:06:43.815Z,95796.08
2019-01-26T04:07:47.091Z,95801.06
2019-01-26T04:08:50.381Z,95804.68
2019-01-26T04:09:53.714Z,95795.10
2019-01-26T04:10:57.000Z,95797.75
2019-01-26T04:12:00.290Z,95803.66
2019-01-26T04:13:03.894Z,95806.35
2019-01-26T04:14:07.174Z,95805.02
2019-01-26T04:15:20.283Z,95805.62
2019-01-26T04:16:23.576Z,95807.67
2019-01-26T04:17:26.949Z,95812.88
2019-01-26T04:18:30.234Z,95815.47
2019-01-26T04:19:33.495Z,95812.09
2019-01-26T04:20:36.821Z,95816.94
2019-01-26T04:21:40.102Z,95812.38
2019-01-26T04:22:43.384Z,95816.13
2019-01-26T04:23:46.671Z,95821.91
2019-01-26T04:24:49.947Z,95820.42
2019-01-26T04:25:53.238Z,95818.85
2019-01-26T04:26:56.541Z,95823.42
2019-01-26T04:27:59.810Z,95829.27
2019-01-26T04:29:03.164Z,95825.33
2019-01-26T04:30:09.975Z,95832.81
2019-01-26T04:31:13.314Z,95832.70
2019-01-26T04:32:16.601Z,95832.73
2019-01-26T04:33:19.884Z,95831.54
2019-01-26T04:34:23.234Z,95830.06
2019-01-26T04:35:26.518Z,95832.86
2019-01-26T04:36:29.842Z,95843.04
2019-01-26T04:37:33.123Z,95842.33
2019-01-26T04:38:36.403Z,95839.42
2019-01-26T04:39:39.692Z,95841.83
2019-01-26T04:40:42.970Z,95848.15
2019-01-26T04:41:46.282Z,95846.04
2019-01-26T04:42:52.648Z,95848.98
2019-01-26T04:43:56.227Z,95850.92
2019-01-26T04:45:00.000Z,95851.88
2019-01-26T04:46:03.236Z,95858.62
2019-01-26T04:47:06.622Z,95856.69
2019-01-26T04:48:09.906Z,95856.34
2019-01-26T04:49:13.192Z,95858.78
2019-01-26T04:50:18.085Z,95869.31
2019-01-26T04:51:21.762Z,95871.05
2019-01-26T04:52:25.077Z,95872.92
2019-01-26T04:53:28.356Z,95874.48
2019-01-26T04:54:31.638Z,95874.12
2019-01-26T04:55:34.921Z,95873.95
2019-01-26T04:56:38.206Z,95875.56
2019-01-26T04:57:41.530Z,95882.42
2019-01-26T04:58:44.803Z,95879.53
2019-01-26T04:59:48.091Z,95883.13
2019-01-26T05:00:51.363Z,95879.89
2019-01-26T05:01:54.645Z,95883.66
2019-01-26T05:02:57.950Z,95886.14
2019-01-26T05:04:01.230Z,95901.18
2019-01-26T05:05:04.784Z,95891.31
2019-01-26T05:06:08.099Z,95890.77
2019-01-26T05:07:11.372Z,95888.55
2019-01-26T05:08:14.796Z,95886.44
2019-01-26T05:09:18.075Z,95888.17
2019-01-26T05:10:22.386Z,95891.55
2019-01-26T05:11:25.638Z,95898.73
2019-01-26T05:12:28.914Z,95893.66
2019-01-26T05:13:32.240Z,95899.00
2019-01-26T05:14:35.991Z,95907.80
2019-01-26T05:15:39.316Z,95892.05
2019-01-26T05:16:42.929Z,95899.38
2019-01-26T05:17:46.204Z,95900.57
2019-01-26T05:18:49.507Z,95898.91
2019-01-26T05:19:52.852Z,95905.08
2019-01-26T05:20:56.134Z,95911.40
2019-01-26T05:21:59.418Z,95905.16
2019-01-26T05:23:02.699Z,95900.81
2019-01-26T05:24:06.036Z,95907.30
2019-01-26T05:25:09.319Z,95905.28
2019-01-26T05:26:12.563Z,95902.92
2019-01-26T05:27:16.209Z,95900.23
2019-01-26T05:28:19.628Z,95906.59
2019-01-26T05:29:22.941Z,95903.83
2019-01-26T05:30:27.365Z,95909.70
2019-01-26T05:31:30.987Z,95914.41
2019-01-26T05:32:34.270Z,95923.95
2019-01-26T05:33:37.554Z,95923.66
2019-01-26T05:34:40.857Z,95919.45
2019-01-26T05:35:44.141Z,95929.91
2019-01-26T05:36:47.423Z,95930.40
2019-01-26T05:37:50.714Z,95918.67
2019-01-26T05:38:53.991Z,95925.23
2019-01-26T05:39:57.299Z,95931.48
2019-01-26T05:41:00.575Z,95929.98
2019-01-26T05:42:03.861Z,95934.07
2019-01-26T05:43:07.248Z,95928.70
2019-01-26T05:44:10.526Z,95932.63
2019-01-26T05:45:16.442Z,95937.79
2019-01-26T05:46:19.737Z,95935.73
2019-01-26T05:47:23.112Z,95937.55
2019-01-26T05:48:26.398Z,95946.13
2019-01-26T05:49:29.745Z,95942.03
2019-01-26T05:50:33.063Z,95951.78
2019-01-26T05:51:36.382Z,95961.63
2019-01-26T05:52:39.654Z,95957.20
2019-01-26T05:53:42.934Z,95947.07
2019-01-26T05:54:46.230Z,95949.61
2019-01-26T05:55:49.949Z,95954.16
2019-01-26T05:56:53.234Z,95948.89
2019-01-26T05:57:56.524Z,95946.97
2019-01-26T05:58:59.813Z,95952.97
2019-01-26T06:00:03.524Z,95946.90
2019-01-26T06:01:06.838Z,95951.15
2019-01-26T06:02:10.123Z,95962.64
2019-01-26T06:03:13.401Z,95965.78
2019-01-26T06:04:16.685Z,95966.78
2019-01-26T06:05:19.964Z,95967.03
2019-01-26T06:06:23.275Z,95971.11
2019-01-26T06:07:26.558Z,95972.14
2019-01-26T06:08:29.906Z,95969.21
2019-01-26T06:09:33.176Z,95972.55
2019-01-26T06:10:36.455Z,95970.44
2019-01-26T06:11:39.767Z,95979.69
2019-01-26T06:12:43.075Z,95974.61
2019-01-26T06:13:46.362Z,95970.86
2019-01-26T06:14:49.709Z,95972.75
2019-01-26T06:15:52.993Z,95974.97
2019-01-26T06:16:56.302Z,95976.91
2019-01-26T06:17:59.574Z,95979.08
2019-01-26T06:19:03.207Z,95987.72
2019-01-26T06:20:09.803Z,95988.51
2019-01-26T06:21:13.090Z,95987.61
2019-01-26T06:22:16.486Z,95986.09
2019-01-26T06:23:21.867Z,95984.47
2019-01-26T06:24:25.153Z,95980.67
2019-01-26T06:25:28.431Z,95985.67
2019-01-26T06:26:31.724Z,95980.98
2019-01-26T06:27:35.037Z,95983.54
2019-01-26T06:28:38.312Z,95980.64
2019-01-26T06:29:41.661Z,95984.61
2019-01-26T06:30:44.951Z,95989.35
2019-01-26T06:31:48.228Z,95994.33
2019-01-26T06:32:51.659Z,95996.90
2019-01-26T06:35:47.583Z,95998.94
2019-01-26T06:36:59.101Z,96001.27
2019-01-26T06:38:14.434Z,96002.80
2019-01-26T06:39:32.024Z,95997.98
2019-01-26T06:40:35.370Z,96008.84
2019-01-26T06:41:38.665Z,96011.70
2019-01-26T06:42:41.938Z,96009.48
2019-01-26T06:43:45.337Z,96013.38
2019-01-26T06:44:48.622Z,96012.27
2019-01-26T06:45:51.908Z,96011.16
2019-01-26T06:46:55.257Z,96016.69
2019-01-26T06:48:02.180Z,96015.63
2019-01-26T06:49:04.337Z,96021.94
2019-01-26T06:50:10.941Z,96022.33
2019-01-26T06:51:14.349Z,96013.33
2019-01-26T06:52:17.694Z,96018.27
2019-01-26T06:53:20.973Z,96019.33
2019-01-26T06:54:24.292Z,96027.27
2019-01-26T06:55:27.568Z,96021.73
2019-01-26T06:56:30.848Z,96028.58
2019-01-26T06:57:34.211Z,96027.41
2019-01-26T06:58:37.890Z,96030.55
2019-01-26T06:59:41.182Z,96032.16
2019-01-26T07:00:44.466Z,96025.66
2019-01-26T07:01:47.752Z,96025.05
2019-01-26T07:02:51.143Z,96025.45
2019-01-26T07:03:54.428Z,96024.41
2019-01-26T07:04:59.740Z,96021.05
2019-01-26T07:06:04.662Z,96024.59
2019-01-26T07:07:10.849Z,96019.95
2019-01-26T07:08:16.886Z,96023.09
2019-01-26T07:09:20.170Z,96023.95
2019-01-26T07:10:23.426Z,96022.45
2019-01-26T07:11:26.709Z,96024.06
2019-01-26T07:12:30.130Z,96025.16
2019-01-26T07:13:33.450Z,96026.70
2019-01-26T07:14:36.774Z,96027.80
2019-01-26T07:15:40.014Z,96025.52
2019-01-26T07:16:43.358Z,96017.84
2019-01-26T07:17:56.273Z,96019.66
2019-01-26T07:18:59.705Z,96026.84
2019-01-26T07:20:03.450Z,96030.77
2019-01-26T07:21:06.817Z,96032.52
2019-01-26T07:22:10.163Z,96036.38
2019-01-26T07:23:13.447Z,96035.88
2019-01-26T07:24:16.760Z,96039.70
2019-01-26T07:25:20.035Z,96042.73
2019-01-26T07:26:23.309Z,96047.13
2019-01-26T07:27:26.582Z,96043.45
2019-01-26T07:28:29.932Z,96041.06
2019-01-26T07:29:33.322Z,96044.34
2019-01-26T07:30:36.683Z,96041.23
2019-01-26T07:31:39.946Z,96047.09
2019-01-26T07:32:43.534Z,96045.78
2019-01-26T07:33:47.117Z,96048.02
2019-01-26T07:34:50.423Z,96048.73
2019-01-26T07:35:53.707Z,96049.70
2019-01-26T07:36:57.011Z,96047.53
2019-01-26T07:38:00.379Z,96056.98
2019-01-26T07:39:05.457Z,96053.06
2019-01-26T07:40:12.108Z,96059.53
2019-01-26T07:41:15.392Z,96053.63
2019-01-26T07:42:18.745Z,96051.70
2019-01-26T07:43:22.014Z,96049.12
2019-01-26T07:44:25.362Z,96057.98
2019-01-26T07:45:28.689Z,96057.98
2019-01-26T07:46:31.971Z,96058.35
2019-01-26T07:47:35.267Z,96068.67
2019-01-26T07:48:38.943Z,96064.95
2019-01-26T07:49:42.349Z,96060.42
2019-01-26T07:50:46.046Z,96060.13
2019-01-26T07:51:49.339Z,96054.56
2019-01-26T07:52:53.028Z,96055.27
2019-01-26T07:53:56.628Z,96052.09
2019-01-26T07:55:00.052Z,96054.81
2019-01-26T07:56:03.360Z,96056.48
2019-01-26T07:57:06.651Z,96060.70
2019-01-26T07:58:10.002Z,96058.45
2019-01-26T07:59:13.294Z,96055.30
2019-01-26T08:00:19.488Z,96060.66
2019-01-26T08:01:22.808Z,96062.64
2019-01-26T08:02:26.097Z,96069.08
2019-01-26T08:03:29.369Z,96066.52
2019-01-26T08:04:32.715Z,96068.80
2019-01-26T08:05:35.997Z,96070.83
2019-01-26T08:06:39.670Z,96069.58
2019-01-26T08:07:42.984Z,96072.92
2019-01-26T08:08:46.267Z,96072.02
2019-01-26T08:09:49.929Z,96072.41
2019-01-26T08:10:53.210Z,96077.45
2019-01-26T08:11:56.537Z,96073.70
2019-01-26T08:12:59.823Z,96070.23
2019-01-26T08:14:03.110Z,96081.05
2019-01-26T08:15:12.473Z,96071.80
2019-01-26T08:16:15.753Z,96075.41
2019-01-26T08:17:19.060Z,96073.72
2019-01-26T08:18:24.201Z,96073.19
2019-01-26T08:19:27.385Z,96074.09
2019-01-26T08:20:30.722Z,96081.88
2019-01-26T08:21:34.079Z,96080.95
2019-01-26T08:22:37.408Z,96087.56
2019-01-26T08:23:41.014Z,96090.11
2019-01-26T08:24:44.711Z,96095.36
2019-01-26T08:25:48.062Z,96094.51
2019-01-26T08:26:51.353Z,96100.62
2019-01-26T08:27:54.675Z,96092.08
2019-01-26T08:28:59.616Z,96094.50
2019-01-26T08:30:03.152Z,96100.58
2019-01-26T08:31:06.498Z,96101.12
2019-01-26T08:32:09.777Z,96092.96
2019-01-26T08:33:13.095Z,96093.54
2019-01-26T08:34:16.490Z,96097.40
2019-01-26T08:35:19.917Z,96099.94
2019-01-26T08:36:23.587Z,96103.33
2019-01-26T08:37:26.955Z,96102.64
2019-01-26T08:38:30.269Z,96101.86
2019-01-26T08:39:33.552Z,96109.66
2019-01-26T08:40:36.846Z,96107.05
2019-01-26T08:41:40.159Z,96112.91
2019-01-26T08:42:43.563Z,96111.80
2019-01-26T08:43:46.886Z,96110.48
2019-01-26T08:44:50.470Z,96109.27
2019-01-26T08:45:53.829Z,96114.48
2019-01-26T08:46:57.117Z,96111.70
2019-01-26T08:48:00.469Z,96108.94
2019-01-26T08:49:03.800Z,96112.58
2019-01-26T08:50:12.815Z,96104.64
2019-01-26T08:51:16.170Z,96116.77
2019-01-26T08:52:19.450Z,96116.19
2019-01-26T08:53:22.883Z,96124.23
2019-01-26T08:54:26.267Z,96130.58
2019-01-26T08:55:29.560Z,96127.93
2019-01-26T08:56:32.851Z,96135.51
2019-01-26T08:57:36.134Z,96136.39
2019-01-26T08:58:39.589Z,96134.93
2019-01-26T08:59:42.914Z,96134.79
2019-01-26T09:00:46.438Z,96136.93
2019-01-26T09:01:51.360Z,96141.02
2019-01-26T09:02:56.352Z,96130.83
2019-01-26T09:04:03.965Z,96135.97
2019-01-26T09:05:07.952Z,96136.83
2019-01-26T09:06:12.879Z,96134.83
2019-01-26T09:07:16.232Z,96141.41
2019-01-26T09:08:19.670Z,96141.30
2019-01-26T09:09:23.013Z,96151.48
2019-01-26T09:10:26.404Z,96153.13
2019-01-26T09:11:29.696Z,96150.31
2019-01-26T09:12:32.982Z,96153.66
2019-01-26T09:13:36.277Z,96145.37
2019-01-26T09:14:39.563Z,96150.06
2019-01-26T09:15:42.893Z,96151.27
2019-01-26T09:16:46.173Z,96150.80
2019-01-26T09:17:49.551Z,96148.98
2019-01-26T09:18:52.931Z,96152.77
2019-01-26T09:19:56.222Z,96154.23
2019-01-26T09:20:59.550Z,96154.30
2019-01-26T09:22:02.841Z,96156.98
2019-01-26T09:23:06.135Z,96161.09
2019-01-26T09:24:09.518Z,96164.71
2019-01-26T09:25:13.058Z,96161.73
2019-01-26T09:26:16.378Z,96165.77
2019-01-26T09:27:19.673Z,96165.42
2019-01-26T09:28:23.028Z,96161.20
2019-01-26T09:29:26.382Z,96166.73
2019-01-26T09:30:29.749Z,96170.86
2019-01-26T09:31:33.073Z,96165.70
2019-01-26T09:32:36.348Z,96160.31
2019-01-26T09:33:39.649Z,96161.17
2019-01-26T09:34:46.622Z,96165.28
2019-01-26T09:35:50.316Z,96165.75
2019-01-26T09:36:53.817Z,96163.46
2019-01-26T09:37:57.165Z,96164.06
2019-01-26T09:39:00.448Z,96162.78
2019-01-26T09:40:06.536Z,96167.43
2019-01-26T09:41:09.962Z,96168.40
2019-01-26T09:42:13.279Z,96169.00
2019-01-26T09:43:16.575Z,96172.22
2019-01-26T09:44:20.207Z,96170.19
2019-01-26T09:45:23.468Z,96174.58
2019-01-26T09:46:26.762Z,96164.17
2019-01-26T09:47:30.138Z,96168.43
2019-01-26T09:48:33.840Z,96164.17
2019-01-26T09:49:37.199Z,96168.00
2019-01-26T09:50:40.573Z,96163.49
2019-01-26T09:51:43.859Z,96164.71
2019-01-26T09:52:47.177Z,96167.22
2019-01-26T09:53:50.469Z,96174.80
2019-01-26T09:54:57.049Z,96163.14
2019-01-26T09:56:00.411Z,96171.36
2019-01-26T09:57:03.735Z,96170.65
2019-01-26T09:58:07.038Z,96174.08
2019-01-26T09:59:10.506Z,96176.52
2019-01-26T10:00:25.247Z,96175.33
2019-01-26T10:01:28.525Z,96176.41
2019-01-26T10:02:31.878Z,96170.90
2019-01-26T10:03:35.362Z,96176.55
2019-01-26T10:04:38.728Z,96176.08
2019-01-26T10:05:42.095Z,96175.58
2019-01-26T10:06:45.384Z,96171.86
2019-01-26T10:07:49.513Z,96176.72
2019-01-26T10:08:52.913Z,96175.48
2019-01-26T10:09:56.287Z,96166.11
2019-01-26T10:11:00.418Z,96171.65
2019-01-26T10:12:03.724Z,96171.54
2019-01-26T10:13:07.492Z,96169.03
2019-01-26T10:14:10.814Z,96167.92
2019-01-26T10:15:25.410Z,96165.39
2019-01-26T10:16:28.867Z,96169.25
2019-01-26T10:17:32.287Z,96164.70
2019-01-26T10:18:35.921Z,96163.78
2019-01-26T10:19:39.242Z,96163.78
2019-01-26T10:20:43.569Z,96168.89
2019-01-26T10:21:46.931Z,96164.96
2019-01-26T10:22:50.228Z,96165.10
2019-01-26T10:23:53.577Z,96166.14
2019-01-26T10:24:56.868Z,96165.34
2019-01-26T10:26:00.475Z,96156.12
2019-01-26T10:27:03.871Z,96168.25
2019-01-26T10:28:07.355Z,96163.59
2019-01-26T10:29:10.633Z,96166.61
2019-01-26T10:30:21.231Z,96165.17
2019-01-26T10:31:24.522Z,96165.21
2019-01-26T10:32:27.845Z,96162.86
2019-01-26T10:33:31.588Z,96169.47
2019-01-26T10:34:34.870Z,96163.06
2019-01-26T10:35:42.457Z,96167.07
2019-01-26T10:36:47.461Z,96174.33
2019-01-26T10:37:50.782Z,96169.25
2019-01-26T10:38:55.621Z,96170.58
2019-01-26T10:40:00.457Z,96177.41
2019-01-26T10:41:05.341Z,96168.50
2019-01-26T10:42:10.274Z,96174.00
2019-01-26T10:43:15.255Z,96170.55
2019-01-26T10:44:20.307Z,96174.51
2019-01-26T10:45:23.593Z,96174.51
2019-01-26T10:46:27.205Z,96172.33
2019-01-26T10:47:31.789Z,96175.76
2019-01-26T10:48:35.074Z,96168.71
2019-01-26T10:49:38.362Z,96176.79
2019-01-26T10:50:41.743Z,96174.80
2019-01-26T10:51:45.038Z,96174.44
2019-01-26T10:52:48.321Z,96170.58
2019-01-26T10:53:51.752Z,96171.50
2019-01-26T10:54:55.181Z,96168.91
2019-01-26T10:55:58.476Z,96173.22
2019-01-26T10:57:03.751Z,96173.83
2019-01-26T10:58:07.116Z,96175.23
2019-01-26T10:59:10.464Z,96175.41
2019-01-26T11:00:20.761Z,96179.09
2019-01-26T11:01:24.079Z,96174.30
2019-01-26T11:02:27.518Z,96176.55
2019-01-26T11:03:30.770Z,96177.63
2019-01-26T11:04:34.089Z,96176.69
2019-01-26T11:05:37.374Z,96177.87
2019-01-26T11:06:40.752Z,96177.30
2019-01-26T11:07:44.043Z,96173.30
2019-01-26T11:08:47.398Z,96166.25
2019-01-26T11:09:51.621Z,96172.08
2019-01-26T11:10:55.052Z,96174.66
2019-01-26T11:11:58.368Z,96176.44
2019-01-26T11:13:01.653Z,96185.02
2019-01-26T11:14:04.937Z,96180.72
2019-01-26T11:15:10.511Z,96173.72
2019-01-26T11:16:13.862Z,96179.62
2019-01-26T11:17:17.164Z,96175.60
2019-01-26T11:18:20.719Z,96176.10
2019-01-26T11:19:24.396Z,96176.16
2019-01-26T11:20:27.880Z,96177.23
2019-01-26T11:21:31.176Z,96173.69
2019-01-26T11:22:34.461Z,96176.22
2019-01-26T11:23:37.742Z,96176.64
2019-01-26T11:24:41.037Z,96180.23
2019-01-26T11:25:44.415Z,96177.58
2019-01-26T11:26:49.345Z,96171.09
2019-01-26T11:27:53.329Z,96172.24
2019-01-26T11:28:58.455Z,96174.20
2019-01-26T11:30:02.121Z,96168.47
2019-01-26T11:31:05.562Z,96167.98
2019-01-26T11:32:08.928Z,96174.47
2019-01-26T11:33:12.213Z,96169.79
2019-01-26T11:34:15.494Z,96168.93
2019-01-26T11:35:21.587Z,96173.40
2019-01-26T11:36:24.899Z,96176.97
2019-01-26T11:37:28.197Z,96175.43
2019-01-26T11:38:31.501Z,96177.96
2019-01-26T11:39:34.854Z,96178.08
2019-01-26T11:40:38.138Z,96168.47
2019-01-26T11:41:41.495Z,96179.39
2019-01-26T11:42:44.863Z,96179.89
2019-01-26T11:43:48.144Z,96177.84
2019-01-26T11:44:58.739Z,96169.48
2019-01-26T11:46:03.987Z,96173.80
2019-01-26T11:47:07.329Z,96176.45
2019-01-26T11:48:18.264Z,96174.34
2019-01-26T11:49:21.554Z,96174.20
2019-01-26T11:50:26.485Z,96176.66
2019-01-26T11:51:31.506Z,96170.63
2019-01-26T11:52:34.828Z,96177.50
2019-01-26T11:53:38.121Z,96179.08
2019-01-26T11:54:43.040Z,96181.48
2019-01-26T11:56:04.210Z,96182.59
2019-01-26T11:57:09.520Z,96178.45
2019-01-26T11:58:12.837Z,96184.41
2019-01-26T11:59:17.397Z,96185.80
2019-01-26T12:00:38.623Z,96178.84
2019-01-26T12:01:52.682Z,96185.21
2019-01-26T12:02:57.644Z,96181.94
2019-01-26T12:04:02.605Z,96185.36
2019-01-26T12:05:07.503Z,96178.81
2019-01-26T12:06:12.434Z,96184.78
2019-01-26T12:07:15.716Z,96186.10
2019-01-26T12:08:19.009Z,96187.71
2019-01-26T12:09:22.332Z,96190.61
2019-01-26T12:10:25.613Z,96185.18
2019-01-26T12:11:28.915Z,96189.94
2019-01-26T12:12:32.212Z,96190.97
2019-01-26T12:13:35.911Z,96191.11
2019-01-26T12:14:39.379Z,96190.98
2019-01-26T12:15:42.665Z,96190.37
2019-01-26T12:16:45.951Z,96193.62
2019-01-26T12:17:49.306Z,96181.30
2019-01-26T12:18:52.593Z,96182.50
2019-01-26T12:19:55.912Z,96182.30
2019-01-26T12:20:59.224Z,96178.11
2019-01-26T12:22:02.518Z,96178.40
2019-01-26T12:23:05.800Z,96182.63
2019-01-26T12:24:09.098Z,96180.55
2019-01-26T12:25:12.426Z,96181.59
2019-01-26T12:26:15.712Z,96177.89
2019-01-26T12:27:19.006Z,96181.16
2019-01-26T12:28:22.295Z,96183.48
2019-01-26T12:29:25.659Z,96178.39
2019-01-26T12:30:29.057Z,96181.29